Time;durP1;ratioP1;P1;durP2;ratioP2;P2;SDS_P1;SDS_P2;PMS_P1;PMS_P2;Temp;Humidity;BMP_temperature;BMP_pressure;BME280_temperature;BME280_humidity;BME280_pressure;Samples;Min_cycle;Max_cycle;Signal;HPM_P1;HPM_P2
2022/07/15 00:00:53;;;;;;;3.40;2.00;;;;;;;20.67;42.39;98394.84;5053943;28;20680;-71
2022/07/15 00:03:20;;;;;;;3.27;1.90;;;;;;;20.70;42.15;98391.59;5053919;28;20713;-70
2022/07/15 00:05:46;;;;;;;3.50;1.80;;;;;;;20.61;42.85;98394.03;5054169;28;20205;-70
2022/07/15 00:08:13;;;;;;;3.87;2.47;;;;;;;20.66;42.43;98387.84;5053865;28;20660;-70
2022/07/15 00:10:39;;;;;;;8.33;2.20;;;;;;;20.49;43.50;98393.56;5054054;28;20223;-70
2022/07/15 00:13:06;;;;;;;4.70;2.40;;;;;;;20.47;44.03;98389.47;5053713;28;20299;-70
2022/07/15 00:15:33;;;;;;;2.73;2.30;;;;;;;20.45;44.71;98394.38;5054567;28;20296;-71
2022/07/15 00:18:01;;;;;;;3.50;2.07;;;;;;;20.57;44.65;98394.88;5053581;28;20632;-70
2022/07/15 00:20:33;;;;;;;2.93;2.10;;;;;;;20.43;45.26;98393.84;5053616;28;20220;-70
2022/07/15 00:23:00;;;;;;;4.63;2.37;;;;;;;20.26;45.92;98385.22;5053935;28;20193;-71
2022/07/15 00:25:26;;;;;;;2.63;2.30;;;;;;;20.05;46.54;98397.09;5053836;28;20301;-71
2022/07/15 00:28:01;;;;;;;4.33;2.50;;;;;;;20.14;46.60;98384.69;5053768;28;20631;-70
2022/07/15 00:30:46;;;;;;;4.77;2.07;;;;;;;20.00;46.65;98386.28;5053786;28;20276;-71
2022/07/15 00:33:13;;;;;;;2.60;2.37;;;;;;;20.03;47.01;98391.94;5053760;28;20221;-70
2022/07/15 00:35:40;;;;;;;5.70;2.50;;;;;;;20.03;47.32;98391.16;5053425;28;20644;-70
2022/07/15 00:38:10;;;;;;;3.63;2.40;;;;;;;20.02;47.35;98386.84;5053588;28;20216;-70
2022/07/15 00:40:48;;;;;;;2.60;2.33;;;;;;;19.99;47.45;98388.16;5054269;28;20263;-71
2022/07/15 00:43:16;;;;;;;3.20;2.20;;;;;;;19.95;47.97;98383.59;5053587;28;20205;-70
2022/07/15 00:45:43;;;;;;;2.83;2.23;;;;;;;19.93;47.94;98385.78;5053192;28;20672;-70
2022/07/15 00:48:10;;;;;;;4.53;2.13;;;;;;;19.97;47.67;98384.13;5053196;28;20208;-71
2022/07/15 00:50:37;;;;;;;3.30;2.10;;;;;;;19.96;47.64;98387.91;5053130;28;20746;-70
2022/07/15 00:53:07;;;;;;;3.90;2.43;;;;;;;19.75;48.23;98392.50;5053482;28;20220;-70
2022/07/15 00:55:38;;;;;;;3.47;2.50;;;;;;;19.65;49.04;98395.19;5053472;28;20205;-70
2022/07/15 00:58:06;;;;;;;5.63;2.60;;;;;;;19.64;48.93;98388.19;5053414;28;20194;-70
2022/07/15 01:00:33;;;;;;;4.97;2.50;;;;;;;19.53;49.73;98390.06;5053281;28;20316;-70
2022/07/15 01:03:01;;;;;;;4.33;2.23;;;;;;;19.55;49.73;98387.09;5053370;28;20206;-71
2022/07/15 01:05:28;;;;;;;4.40;2.50;;;;;;;19.49;50.07;98397.06;5053394;28;20291;-70
2022/07/15 01:07:55;;;;;;;5.00;2.20;;;;;;;19.48;49.36;98393.84;5053339;28;20216;-70
2022/07/15 01:10:24;;;;;;;3.97;2.20;;;;;;;19.53;49.41;98400.03;5053246;28;20208;-70
2022/07/15 01:12:52;;;;;;;2.67;2.10;;;;;;;19.40;50.20;98390.56;5053293;28;20216;-70
2022/07/15 01:15:19;;;;;;;4.13;2.33;;;;;;;19.27;50.77;98398.38;5052938;28;20571;-70
2022/07/15 01:17:47;;;;;;;4.87;2.40;;;;;;;19.20;50.78;98401.28;5053109;28;20301;-70
2022/07/15 01:20:16;;;;;;;2.67;2.40;;;;;;;19.12;51.21;98404.50;5053022;28;20335;-70
2022/07/15 01:22:42;;;;;;;4.30;2.67;;;;;;;19.27;49.75;98396.47;5053603;28;20545;-70
2022/07/15 01:25:09;;;;;;;3.77;2.30;;;;;;;19.23;50.27;98398.09;5053104;28;20295;-70
2022/07/15 01:27:35;;;;;;;4.40;2.23;;;;;;;19.11;50.13;98408.28;5053165;28;20292;-70
2022/07/15 01:30:02;;;;;;;3.63;2.20;;;;;;;19.06;50.54;98408.25;5052987;28;20228;-70
2022/07/15 01:32:28;;;;;;;7.50;2.50;;;;;;;18.95;50.88;98409.28;5056364;28;20678;-70
2022/07/15 01:34:55;;;;;;;5.10;2.60;;;;;;;18.95;51.15;98409.28;5056668;28;20215;-70
2022/07/15 01:37:21;;;;;;;4.97;2.40;;;;;;;18.93;51.14;98408.75;5056694;28;20718;-70
2022/07/15 01:39:48;;;;;;;4.83;2.30;;;;;;;18.88;51.13;98405.22;5055566;28;20229;-70
2022/07/15 01:42:14;;;;;;;4.03;2.27;;;;;;;19.04;49.71;98410.38;5056869;28;20215;-70
2022/07/15 01:44:41;;;;;;;7.23;2.40;;;;;;;18.91;50.98;98408.19;5056784;28;20230;-70
2022/07/15 01:47:07;;;;;;;4.17;2.20;;;;;;;18.79;51.02;98407.59;5056788;28;20209;-70
2022/07/15 01:49:33;;;;;;;5.73;2.27;;;;;;;18.73;51.56;98403.25;5056643;28;20225;-70
2022/07/15 01:52:01;;;;;;;4.07;2.13;;;;;;;18.66;51.56;98404.56;5056677;28;20223;-70
2022/07/15 01:54:29;;;;;;;2.23;1.97;;;;;;;18.64;51.84;98402.13;5056637;28;20209;-71
2022/07/15 01:56:55;;;;;;;3.33;2.17;;;;;;;18.53;51.81;98402.34;5056621;28;20288;-70
2022/07/15 01:59:24;;;;;;;4.73;2.40;;;;;;;18.57;51.62;98401.56;5056241;28;20241;-70
2022/07/15 02:01:53;;;;;;;5.20;2.20;;;;;;;18.56;51.55;98399.97;5056103;28;20586;-70
2022/07/15 02:04:20;;;;;;;6.27;2.33;;;;;;;18.61;51.37;98396.47;5056411;28;20294;-70
2022/07/15 02:06:47;;;;;;;3.70;2.27;;;;;;;18.48;51.85;98402.31;5056494;28;20567;-70
2022/07/15 02:09:14;;;;;;;3.73;2.40;;;;;;;18.27;52.49;98395.97;5056016;28;20712;-70
2022/07/15 02:11:40;;;;;;;3.77;2.33;;;;;;;18.27;52.60;98398.66;5056310;28;20626;-71
2022/07/15 02:14:07;;;;;;;5.00;2.30;;;;;;;18.35;52.22;98400.06;5056036;28;20303;-70
2022/07/15 02:16:35;;;;;;;5.73;2.10;;;;;;;18.26;53.32;98393.53;5056317;28;20216;-70
2022/07/15 02:19:01;;;;;;;2.90;2.03;;;;;;;18.10;54.00;98400.69;5056158;28;20229;-70
2022/07/15 02:21:28;;;;;;;2.53;2.20;;;;;;;18.10;53.24;98394.50;5056103;28;20229;-71
2022/07/15 02:23:57;;;;;;;3.47;2.27;;;;;;;18.10;53.28;98391.81;5056054;28;20211;-70
2022/07/15 02:26:24;;;;;;;5.33;2.30;;;;;;;18.03;53.61;98397.41;5056082;28;20255;-70
2022/07/15 02:28:50;;;;;;;4.03;2.40;;;;;;;17.98;52.98;98386.63;5056222;28;20316;-70
2022/07/15 02:31:17;;;;;;;4.00;2.23;;;;;;;17.77;55.53;98400.16;5055551;28;20680;-70
2022/07/15 02:33:43;;;;;;;3.63;2.20;;;;;;;17.68;56.07;98397.13;5055892;28;20296;-70
2022/07/15 02:36:10;;;;;;;3.37;2.50;;;;;;;17.66;55.67;98395.75;5055555;28;20668;-70
2022/07/15 02:38:37;;;;;;;6.77;2.43;;;;;;;17.65;55.99;98394.94;5055745;28;20225;-70
2022/07/15 02:41:03;;;;;;;3.30;2.13;;;;;;;17.67;55.33;98392.00;5055710;28;20225;-70
2022/07/15 02:43:30;;;;;;;3.90;2.47;;;;;;;17.58;56.38;98407.81;5055312;28;20698;-70
2022/07/15 02:45:56;;;;;;;3.60;2.10;;;;;;;17.59;56.30;98397.84;5055679;28;20205;-70
2022/07/15 02:48:23;;;;;;;3.03;2.13;;;;;;;17.58;56.43;98402.41;5055556;28;20221;-70
2022/07/15 02:50:50;;;;;;;4.10;2.40;;;;;;;17.53;57.02;98404.25;5055232;28;20567;-70
2022/07/15 02:53:18;;;;;;;3.50;2.13;;;;;;;17.42;57.13;98403.31;5055227;28;20731;-70
2022/07/15 02:55:44;;;;;;;3.97;2.23;;;;;;;17.40;57.25;98397.41;5055525;28;20259;-70
2022/07/15 02:58:11;;;;;;;2.70;2.20;;;;;;;17.35;57.11;98409.94;5055247;28;20209;-70
2022/07/15 03:00:38;;;;;;;2.67;2.33;;;;;;;17.45;56.27;98402.00;5054950;28;20209;-69
2022/07/15 03:03:04;;;;;;;4.43;1.80;;;;;;;17.40;56.85;98401.97;5055067;28;20232;-70
2022/07/15 03:05:31;;;;;;;3.50;2.00;;;;;;;17.47;56.88;98416.03;5054875;28;20294;-70
2022/07/15 03:07:57;;;;;;;2.47;2.10;;;;;;;17.46;57.18;98415.19;5055167;28;20311;-70
2022/07/15 03:10:24;;;;;;;3.33;2.20;;;;;;;17.37;57.31;98415.91;5055285;28;20213;-70
2022/07/15 03:12:50;;;;;;;3.30;2.57;;;;;;;17.48;56.68;98409.56;5055110;28;20296;-70
2022/07/15 03:15:17;;;;;;;4.67;2.30;;;;;;;17.56;56.98;98403.75;5054714;28;20520;-70
2022/07/15 03:17:43;;;;;;;6.10;2.40;;;;;;;17.50;56.80;98407.47;5054930;28;20300;-70
2022/07/15 03:20:11;;;;;;;3.93;2.30;;;;;;;17.60;56.91;98410.25;5054456;28;20784;-70
2022/07/15 03:22:37;;;;;;;3.13;2.50;;;;;;;17.41;57.57;98411.66;5054813;28;20583;-70
2022/07/15 03:25:04;;;;;;;2.27;2.07;;;;;;;17.36;57.71;98409.69;5054690;28;20292;-70
2022/07/15 03:27:31;;;;;;;3.43;2.20;;;;;;;17.34;57.59;98411.00;5054728;28;20292;-70
2022/07/15 03:29:57;;;;;;;5.00;2.00;;;;;;;17.31;57.55;98415.03;5054588;28;20312;-70
2022/07/15 03:32:23;;;;;;;4.90;2.30;;;;;;;17.27;57.61;98411.22;5054540;28;20284;-70
2022/07/15 03:34:50;;;;;;;3.17;2.17;;;;;;;17.16;58.41;98411.34;5054081;28;20304;-69
2022/07/15 03:37:17;;;;;;;3.77;2.20;;;;;;;17.10;58.77;98421.22;5054381;28;20286;-70
2022/07/15 03:39:44;;;;;;;4.57;2.30;;;;;;;17.08;58.89;98411.78;5054296;28;20225;-70
2022/07/15 03:42:10;;;;;;;4.73;2.30;;;;;;;17.12;58.79;98416.44;5054190;28;20569;-69
2022/07/15 03:44:37;;;;;;;2.73;2.03;;;;;;;17.26;58.27;98420.34;5053836;28;20208;-70
2022/07/15 03:47:03;;;;;;;3.03;2.27;;;;;;;17.27;57.26;98421.97;5053793;28;20750;-70
2022/07/15 03:49:30;;;;;;;4.13;2.23;;;;;;;17.43;57.27;98418.41;5054085;28;20315;-70
2022/07/15 03:51:56;;;;;;;3.83;2.27;;;;;;;17.18;58.44;98420.78;5054134;28;20205;-70
2022/07/15 03:54:23;;;;;;;7.17;2.47;;;;;;;17.22;57.55;98426.47;5053261;28;20209;-70
2022/07/15 03:56:49;;;;;;;3.30;2.50;;;;;;;17.21;57.18;98416.78;5054169;28;20304;-70
2022/07/15 03:59:16;;;;;;;2.93;2.17;;;;;;;17.10;56.81;98425.81;5053557;28;20727;-70
2022/07/15 04:01:43;;;;;;;5.57;2.23;;;;;;;17.05;57.65;98421.16;5054507;28;20568;-70
2022/07/15 04:04:09;;;;;;;4.87;2.20;;;;;;;17.08;57.98;98427.91;5053771;28;20296;-70
2022/07/15 04:06:36;;;;;;;4.63;2.30;;;;;;;17.09;58.56;98424.97;5053915;28;20248;-69
2022/07/15 04:09:03;;;;;;;4.07;2.33;;;;;;;17.07;58.02;98432.50;5053963;28;20232;-70
2022/07/15 04:11:30;;;;;;;4.60;2.27;;;;;;;17.04;58.22;98427.63;5053867;28;20197;-70
2022/07/15 04:13:56;;;;;;;4.73;2.33;;;;;;;17.05;58.08;98426.53;5053802;28;20209;-70
2022/07/15 04:16:23;;;;;;;3.40;2.13;;;;;;;17.06;58.59;98427.38;5053797;28;20208;-70
2022/07/15 04:18:51;;;;;;;2.87;2.30;;;;;;;17.10;58.30;98431.19;5053888;28;20233;-70
2022/07/15 04:21:18;;;;;;;3.10;2.30;;;;;;;17.39;57.60;98429.88;5053429;28;20221;-70
2022/07/15 04:23:44;;;;;;;2.97;2.03;;;;;;;17.44;57.34;98433.47;5053648;28;20259;-70
2022/07/15 04:26:11;;;;;;;2.80;2.40;;;;;;;17.52;57.05;98435.72;5053474;28;20292;-69
2022/07/15 04:28:37;;;;;;;4.60;2.40;;;;;;;17.61;56.34;98433.38;5053069;28;20708;-70
2022/07/15 04:31:04;;;;;;;2.80;2.10;;;;;;;17.60;57.19;98432.53;5053065;28;20292;-70
2022/07/15 04:33:30;;;;;;;4.17;2.50;;;;;;;17.63;56.69;98436.59;5053401;28;20259;-69
2022/07/15 04:35:56;;;;;;;4.40;2.17;;;;;;;17.59;56.36;98435.47;5053265;28;20205;-70
2022/07/15 04:38:23;;;;;;;4.20;2.23;;;;;;;17.64;54.47;98432.88;5052820;28;20576;-69
2022/07/15 04:40:49;;;;;;;2.87;2.17;;;;;;;17.67;54.41;98438.53;5052728;28;20300;-70
2022/07/15 04:43:16;;;;;;;3.47;2.40;;;;;;;17.70;54.19;98434.53;5052188;28;20591;-69
2022/07/15 04:45:42;;;;;;;4.27;2.43;;;;;;;17.74;53.92;98439.13;5052593;28;20208;-70
2022/07/15 04:50:51;;;;;;;7.43;2.40;;;;;;;17.82;53.52;98424.44;5052547;28;20196;-70
2022/07/15 04:53:18;;;;;;;3.63;2.00;;;;;;;17.84;53.30;98431.16;5052958;28;20196;-70
2022/07/15 04:55:45;;;;;;;3.00;1.90;;;;;;;17.84;53.34;98431.16;5052756;28;20205;-70
2022/07/15 04:58:14;;;;;;;3.87;2.30;;;;;;;17.87;53.42;98425.25;5052448;28;20664;-70
2022/07/15 05:00:41;;;;;;;5.77;2.50;;;;;;;17.90;54.89;98432.00;5052688;28;20193;-69
2022/07/15 05:03:08;;;;;;;6.03;2.40;;;;;;;17.97;54.73;98424.53;5052761;28;20749;-70
2022/07/15 05:05:34;;;;;;;4.63;2.40;;;;;;;18.04;52.88;98434.00;5052317;28;20728;-70
2022/07/15 05:08:01;;;;;;;3.83;2.33;;;;;;;18.17;53.61;98435.44;5056770;28;20332;-70
2022/07/15 05:10:27;;;;;;;3.97;2.17;;;;;;;18.42;51.73;98428.38;5056712;28;20205;-70
2022/07/15 05:12:53;;;;;;;2.70;2.20;;;;;;;18.90;51.54;98433.50;5056646;28;20201;-70
2022/07/15 05:15:20;;;;;;;3.03;2.33;;;;;;;19.27;51.12;98433.44;5056694;28;20204;-70
2022/07/15 05:17:46;;;;;;;3.60;2.43;;;;;;;19.41;50.12;98439.94;5057337;28;20307;-70
2022/07/15 05:20:13;;;;;;;3.73;2.33;;;;;;;19.34;49.80;98440.19;5055204;28;20240;-70
2022/07/15 05:22:39;;;;;;;6.77;2.50;;;;;;;19.32;50.19;98433.44;5056579;28;20293;-69
2022/07/15 05:25:06;;;;;;;4.67;2.10;;;;;;;19.66;50.17;98433.78;5056358;28;20207;-70
2022/07/15 05:27:32;;;;;;;4.30;2.47;;;;;;;20.54;47.11;98436.75;5056113;28;20211;-70
2022/07/15 05:29:59;;;;;;;4.30;2.40;;;;;;;21.44;44.68;98438.34;5056093;28;20315;-70
2022/07/15 05:32:25;;;;;;;5.37;2.40;;;;;;;21.73;43.93;98440.09;5055797;28;20286;-70
2022/07/15 05:34:52;;;;;;;3.37;2.53;;;;;;;21.46;44.04;98438.84;5056163;28;20300;-70
2022/07/15 05:37:18;;;;;;;6.00;2.63;;;;;;;20.81;45.80;98441.81;5056180;28;20209;-70
2022/07/15 05:39:54;;;;;;;7.37;2.83;;;;;;;19.89;47.00;98450.25;5056137;28;20225;-70
2022/07/15 05:42:24;;;;;;;6.27;2.97;;;;;;;19.69;49.04;98453.72;5056504;28;20220;-70
2022/07/15 05:44:50;;;;;;;7.73;3.23;;;;;;;19.62;49.56;98455.06;5056187;28;20228;-70
2022/07/15 05:47:17;;;;;;;3.60;2.50;;;;;;;19.89;48.55;98458.34;5055916;28;20304;-69
2022/07/15 05:49:43;;;;;;;5.50;2.73;;;;;;;19.87;48.90;98452.41;5055894;28;20311;-70
2022/07/15 05:52:10;;;;;;;3.50;2.30;;;;;;;20.27;48.96;98451.63;5056246;28;20231;-70
2022/07/15 05:54:37;;;;;;;5.13;2.43;;;;;;;20.49;47.90;98454.84;5055582;28;20299;-70
2022/07/15 05:57:04;;;;;;;3.70;2.07;;;;;;;20.42;47.36;98455.13;5055387;28;20205;-69
2022/07/15 05:59:31;;;;;;;5.40;2.57;;;;;;;20.11;47.81;98458.94;5055953;28;20612;-72
2022/07/15 06:01:59;;;;;;;10.37;2.70;;;;;;;20.06;48.42;98466.19;5055733;28;20232;-69
2022/07/15 06:04:26;;;;;;;6.33;2.50;;;;;;;20.11;48.49;98460.84;5055631;28;20216;-69
2022/07/15 06:06:53;;;;;;;4.60;3.10;;;;;;;20.22;46.94;98462.44;5055762;28;20664;-69
2022/07/15 06:09:20;;;;;;;4.60;2.33;;;;;;;20.13;46.55;98458.66;5054279;28;20291;-69
2022/07/15 06:11:47;;;;;;;5.57;2.30;;;;;;;20.16;47.43;98463.53;5055538;28;20233;-69
2022/07/15 06:14:13;;;;;;;4.50;2.33;;;;;;;20.24;48.23;98465.66;5055896;28;20320;-70
2022/07/15 06:16:40;;;;;;;3.80;1.90;;;;;;;20.34;47.53;98461.09;5055303;28;20270;-70
2022/07/15 06:19:08;;;;;;;5.40;2.13;;;;;;;20.34;46.60;98460.28;5056042;28;20264;-70
2022/07/15 06:21:35;;;;;;;4.90;2.20;;;;;;;20.51;45.70;98455.38;5055332;28;20560;-70
2022/07/15 06:24:01;;;;;;;2.90;1.93;;;;;;;20.27;46.43;98465.97;5055260;28;20240;-70
2022/07/15 06:26:28;;;;;;;5.03;2.13;;;;;;;20.36;47.73;98458.94;5055712;28;20201;-70
2022/07/15 06:28:54;;;;;;;8.87;2.40;;;;;;;20.48;47.24;98464.84;5054431;28;20320;-69
2022/07/15 06:31:21;;;;;;;3.33;1.93;;;;;;;20.55;47.75;98457.28;5055712;28;20574;-70
2022/07/15 06:33:47;;;;;;;3.73;2.00;;;;;;;20.50;46.70;98460.00;5055305;28;20632;-70
2022/07/15 06:36:14;;;;;;;3.17;2.30;;;;;;;20.61;45.79;98453.47;5054922;28;20372;-70
2022/07/15 06:38:40;;;;;;;4.70;2.13;;;;;;;20.55;45.03;98454.59;5055055;28;20229;-70
2022/07/15 06:41:07;;;;;;;2.77;2.00;;;;;;;20.94;44.07;98462.91;5054860;28;20211;-70
2022/07/15 06:43:33;;;;;;;3.60;1.97;;;;;;;20.34;45.30;98463.00;5054521;28;20197;-70
2022/07/15 06:46:00;;;;;;;5.40;1.80;;;;;;;20.78;46.21;98454.00;5054534;28;20216;-70
2022/07/15 06:48:26;;;;;;;2.43;2.10;;;;;;;21.02;45.13;98460.41;5055150;28;20312;-69
2022/07/15 06:50:53;;;;;;;5.20;1.87;;;;;;;21.06;43.90;98463.38;5054771;28;20231;-70
2022/07/15 06:53:19;;;;;;;2.33;1.90;;;;;;;21.11;43.06;98461.47;5055583;28;20292;-70
2022/07/15 06:55:46;;;;;;;1.97;1.77;;;;;;;21.08;43.86;98458.50;5055090;28;20209;-70
2022/07/15 06:58:12;;;;;;;2.70;1.70;;;;;;;21.36;42.66;98457.84;5054693;28;20548;-70
2022/07/15 07:00:39;;;;;;;2.50;1.60;;;;;;;21.15;42.11;98462.53;5054596;28;20197;-70
2022/07/15 07:03:05;;;;;;;5.93;1.77;;;;;;;21.10;41.46;98453.63;5054477;28;20787;-70
2022/07/15 07:05:31;;;;;;;4.20;1.90;;;;;;;20.95;41.78;98457.22;5054652;28;20201;-70
2022/07/15 07:07:58;;;;;;;5.83;1.73;;;;;;;21.23;41.90;98455.75;5054385;28;20300;-71
2022/07/15 07:10:25;;;;;;;2.93;1.30;;;;;;;21.09;40.72;98452.03;5054048;28;20205;-70
2022/07/15 07:12:52;;;;;;;5.23;1.67;;;;;;;21.05;41.79;98457.19;5054318;28;20202;-70
2022/07/15 07:15:20;;;;;;;3.50;1.57;;;;;;;21.29;39.64;98449.25;5054131;28;20209;-70
2022/07/15 07:17:47;;;;;;;5.30;1.57;;;;;;;21.42;39.33;98451.31;5054096;28;20211;-70
2022/07/15 07:20:13;;;;;;;3.03;1.60;;;;;;;21.28;38.87;98453.00;5054092;28;20225;-69
2022/07/15 07:22:40;;;;;;;5.47;1.70;;;;;;;21.47;38.83;98459.44;5054143;28;20712;-70
2022/07/15 07:25:07;;;;;;;3.70;1.83;;;;;;;21.68;40.66;98452.78;5054218;28;20206;-70
2022/07/15 07:27:33;;;;;;;2.00;1.73;;;;;;;22.09;38.72;98456.88;5054029;28;20664;-70
2022/07/15 07:30:01;;;;;;;2.30;1.60;;;;;;;21.30;39.59;98448.16;5053534;28;20319;-70
2022/07/15 07:32:28;;;;;;;5.50;1.77;;;;;;;21.23;41.25;98453.03;5053786;28;20212;-70
2022/07/15 07:34:54;;;;;;;2.60;1.63;;;;;;;21.44;40.79;98446.44;5054106;28;20292;-70
2022/07/15 07:37:21;;;;;;;4.70;1.90;;;;;;;21.44;39.96;98451.88;5054255;28;20204;-70
2022/07/15 07:39:48;;;;;;;2.87;1.73;;;;;;;21.60;39.86;98450.66;5053876;28;20225;-70
2022/07/15 07:42:14;;;;;;;3.23;1.60;;;;;;;21.55;39.03;98448.00;5053903;28;20225;-70
2022/07/15 07:44:42;;;;;;;3.23;1.60;;;;;;;21.63;39.34;98450.94;5054128;28;20235;-70
2022/07/15 07:47:09;;;;;;;3.60;2.03;;;;;;;21.78;39.24;98450.88;5054114;28;20204;-70
2022/07/15 07:49:35;;;;;;;3.10;1.70;;;;;;;22.02;38.99;98448.28;5054032;28;20590;-70
2022/07/15 07:52:02;;;;;;;5.00;1.67;;;;;;;22.08;39.65;98450.66;5053976;28;20292;-70
2022/07/15 07:54:29;;;;;;;5.50;1.70;;;;;;;21.92;39.07;98453.72;5053635;28;20303;-71
2022/07/15 07:56:56;;;;;;;3.50;1.70;;;;;;;21.93;38.73;98444.53;5053699;28;20244;-69
2022/07/15 07:59:22;;;;;;;6.27;1.87;;;;;;;22.00;37.86;98445.03;5053120;28;20603;-69
2022/07/15 08:01:49;;;;;;;2.50;1.70;;;;;;;22.25;38.77;98440.19;5053873;28;20292;-70
2022/07/15 08:04:16;;;;;;;6.77;1.70;;;;;;;22.21;36.89;98449.19;5053794;28;20267;-69
2022/07/15 08:06:42;;;;;;;2.87;1.87;;;;;;;21.98;37.79;98444.50;5053443;28;20209;-69
2022/07/15 08:09:09;;;;;;;3.80;1.77;;;;;;;22.20;38.94;98450.28;5053839;28;20311;-70
2022/07/15 08:11:36;;;;;;;4.35;1.77;;;;;;;22.34;37.77;98449.31;5053570;28;20211;-70
2022/07/15 08:14:02;;;;;;;2.37;1.40;;;;;;;22.36;37.59;98440.91;5053585;28;20330;-70
2022/07/15 08:16:29;;;;;;;2.97;1.50;;;;;;;22.33;37.48;98434.19;5052956;28;20206;-70
2022/07/15 08:18:57;;;;;;;2.58;1.60;;;;;;;22.42;37.55;98440.59;5053495;28;20225;-69
2022/07/15 08:21:23;;;;;;;2.83;1.80;;;;;;;22.39;36.65;98434.94;5053504;28;20290;-69
2022/07/15 08:23:49;;;;;;;3.30;1.77;;;;;;;22.62;36.04;98440.44;5053076;28;20221;-70
2022/07/15 08:26:22;;;;;;;3.70;1.70;;;;;;;22.25;36.51;98447.53;5052982;28;20205;-70
2022/07/15 08:28:49;;;;;;;2.00;1.70;;;;;;;22.41;36.79;98443.56;5052880;28;20232;-69
2022/07/15 08:31:16;;;;;;;4.25;2.00;;;;;;;22.61;36.65;98441.50;5053276;28;20215;-70
2022/07/15 08:33:42;;;;;;;3.17;1.58;;;;;;;22.96;37.16;98440.31;5053351;28;20235;-70
2022/07/15 08:36:09;;;;;;;3.20;1.50;;;;;;;22.85;36.29;98436.94;5052997;28;20205;-70
2022/07/15 08:38:36;;;;;;;4.32;1.70;;;;;;;22.96;37.19;98443.84;5053056;28;20225;-70
2022/07/15 08:41:02;;;;;;;2.38;1.52;;;;;;;23.07;36.76;98436.41;5052792;28;20661;-70
2022/07/15 08:43:29;;;;;;;3.28;1.70;;;;;;;23.08;37.00;98436.13;5052831;28;20257;-69
2022/07/15 08:45:56;;;;;;;5.60;1.70;;;;;;;23.01;36.20;98435.66;5053138;28;20209;-69
2022/07/15 08:48:29;;;;;;;4.97;1.75;;;;;;;22.98;37.41;98438.94;5053201;28;20299;-69
2022/07/15 08:50:56;;;;;;;4.50;1.80;;;;;;;23.27;36.87;98439.69;5053191;28;20198;-70
2022/07/15 08:53:23;;;;;;;3.50;1.80;;;;;;;22.66;35.87;98436.03;5052928;28;20255;-70
2022/07/15 08:55:49;;;;;;;2.97;1.85;;;;;;;22.96;35.81;98445.75;5052537;28;20572;-70
2022/07/15 08:58:16;;;;;;;4.03;1.90;;;;;;;22.32;36.53;98437.16;5052610;28;20703;-70
2022/07/15 09:00:42;;;;;;;2.55;1.65;;;;;;;22.62;36.20;98436.91;5053214;28;20201;-70
2022/07/15 09:03:09;;;;;;;3.35;1.90;;;;;;;22.75;35.70;98438.94;5052639;28;20688;-70
2022/07/15 09:05:38;;;;;;;3.42;1.70;;;;;;;22.95;36.42;98438.72;5053015;28;20205;-69
2022/07/15 09:08:08;;;;;;;4.97;1.90;;;;;;;23.09;35.22;98447.75;5052962;28;20210;-69
2022/07/15 09:10:47;;;;;;;3.38;1.50;;;;;;;23.01;35.70;98451.91;5052878;28;20216;-69
2022/07/15 09:13:24;;;;;;;4.85;1.90;;;;;;;22.94;35.81;98445.22;5052960;28;20209;-70
2022/07/15 09:15:51;;;;;;;3.83;1.85;;;;;;;23.09;36.14;98445.03;5052340;28;20605;-69
2022/07/15 09:18:22;;;;;;;4.07;1.80;;;;;;;23.18;34.70;98448.72;5052647;28;20221;-70
2022/07/15 09:20:50;;;;;;;2.65;1.67;;;;;;;23.23;35.00;98454.13;5052170;28;20222;-70
2022/07/15 09:23:22;;;;;;;6.57;1.88;;;;;;;23.16;35.43;98442.81;5052389;28;20259;-70
2022/07/15 09:25:50;;;;;;;4.88;1.85;;;;;;;23.12;35.09;98441.75;5052621;28;20276;-70
2022/07/15 09:28:17;;;;;;;4.10;1.80;;;;;;;23.45;34.57;98443.53;5052173;28;20708;-70
2022/07/15 09:33:36;;;;;;;2.83;1.65;;;;;;;23.35;34.27;98439.06;5052624;28;20731;-70
2022/07/15 09:36:13;;;;;;;2.92;1.75;;;;;;;23.74;34.25;98436.84;5052581;28;20197;-70
2022/07/15 09:38:50;;;;;;;5.13;1.70;;;;;;;23.93;34.03;98439.59;5052640;28;20225;-70
2022/07/15 09:41:38;;;;;;;2.08;1.75;;;;;;;23.80;33.57;98445.75;5052454;28;20189;-70
2022/07/15 09:44:21;;;;;;;4.10;1.73;;;;;;;23.85;33.51;98451.91;5052527;28;20216;-70
2022/07/15 09:46:51;;;;;;;2.47;1.58;;;;;;;23.88;33.35;98450.50;5052399;28;20300;-69
2022/07/15 09:49:24;;;;;;;3.40;1.90;;;;;;;23.85;34.43;98446.47;5052156;28;20264;-70
2022/07/15 09:51:53;;;;;;;2.97;1.70;;;;;;;24.25;34.56;98445.06;5052990;28;20277;-70
2022/07/15 09:54:20;;;;;;;4.05;1.70;;;;;;;23.53;33.44;98449.13;5056257;28;20255;-70
2022/07/15 09:56:47;;;;;;;5.75;1.80;;;;;;;23.65;33.61;98445.97;5056403;28;20201;-70
2022/07/15 09:59:14;;;;;;;2.88;1.60;;;;;;;24.42;33.33;98440.66;5055535;28;20237;-70
2022/07/15 10:01:42;;;;;;;6.38;1.75;;;;;;;24.90;33.46;98446.59;5055608;28;20215;-70
2022/07/15 10:04:09;;;;;;;4.00;1.75;;;;;;;25.07;31.98;98439.47;5056086;28;20313;-70
2022/07/15 10:06:39;;;;;;;4.20;1.77;;;;;;;23.71;33.27;98444.78;5056027;28;20207;-70
2022/07/15 10:09:07;;;;;;;4.80;2.00;;;;;;;24.00;33.76;98453.59;5055594;28;20592;-70
2022/07/15 10:11:36;;;;;;;4.05;1.67;;;;;;;24.28;33.52;98449.91;5055990;28;20296;-70
2022/07/15 10:14:24;;;;;;;6.63;1.98;;;;;;;23.93;33.11;98447.75;5055914;28;20201;-70
2022/07/15 10:17:08;;;;;;;2.45;1.60;;;;;;;24.34;33.73;98451.41;5055716;28;20209;-70
2022/07/15 10:19:55;;;;;;;5.97;2.05;;;;;;;24.87;33.50;98447.22;5055747;28;20818;-70
2022/07/15 10:22:28;;;;;;;3.92;1.52;;;;;;;24.55;32.93;98445.31;5055538;28;20741;-70
2022/07/15 10:25:18;;;;;;;2.97;1.65;;;;;;;23.47;33.92;98439.41;5055634;28;20570;-70
2022/07/15 10:28:05;;;;;;;3.47;1.88;;;;;;;24.03;33.58;98425.84;5054421;28;20306;-70
2022/07/15 10:30:31;;;;;;;5.63;2.20;;;;;;;24.53;33.43;98428.53;5055487;28;20193;-70
2022/07/15 10:33:03;;;;;;;7.18;2.25;;;;;;;24.56;33.06;98416.25;5055229;28;20297;-70
2022/07/15 10:35:38;;;;;;;2.58;1.90;;;;;;;23.80;33.51;98426.72;5055439;28;20611;-70
2022/07/15 10:38:23;;;;;;;3.00;2.00;;;;;;;23.65;33.38;98435.91;5055297;28;20296;-70
2022/07/15 10:41:14;;;;;;;4.32;1.90;;;;;;;23.14;34.93;98424.09;5054922;28;20672;-70
2022/07/15 10:43:43;;;;;;;3.40;2.15;;;;;;;23.44;34.81;98421.03;5054710;28;20210;-70
2022/07/15 10:46:19;;;;;;;3.63;1.83;;;;;;;24.37;33.80;98413.56;5055108;28;20236;-70
2022/07/15 10:48:49;;;;;;;4.43;2.10;;;;;;;24.88;32.95;98405.31;5055173;28;20316;-70
2022/07/15 10:51:43;;;;;;;3.40;2.03;;;;;;;24.88;33.23;98403.38;5054717;28;20190;-70
2022/07/15 10:54:31;;;;;;;2.75;2.00;;;;;;;25.40;31.98;98400.16;5054899;28;20185;-70
2022/07/15 10:56:57;;;;;;;2.78;1.88;;;;;;;25.10;32.56;98402.69;5054684;28;20747;-70
2022/07/15 10:59:26;;;;;;;4.85;2.10;;;;;;;24.99;31.72;98402.09;5054243;28;20233;-70
2022/07/15 11:02:02;;;;;;;7.53;2.38;;;;;;;25.16;32.63;98396.03;5055186;28;20205;-70
2022/07/15 11:04:30;;;;;;;4.40;2.25;;;;;;;25.27;32.42;98389.25;5053595;28;20267;-70
2022/07/15 11:07:03;;;;;;;3.38;2.20;;;;;;;24.89;32.65;98385.97;5054777;28;20299;-70
2022/07/15 11:09:54;;;;;;;3.53;2.38;;;;;;;25.01;32.89;98386.25;5054832;28;20245;-70
2022/07/15 11:12:25;;;;;;;6.10;2.25;;;;;;;25.49;31.60;98376.53;5054786;28;20201;-70
2022/07/15 11:15:01;;;;;;;5.47;2.28;;;;;;;25.14;32.21;98385.44;5054469;28;20721;-70
2022/07/15 11:17:28;;;;;;;2.95;2.10;;;;;;;24.47;34.53;98375.34;5054404;28;20196;-70
2022/07/15 11:19:59;;;;;;;5.65;2.28;;;;;;;24.70;33.58;98379.81;5054510;28;20311;-70
2022/07/15 11:22:28;;;;;;;3.60;2.13;;;;;;;25.25;33.01;98369.69;5054749;28;20209;-70
2022/07/15 11:24:56;;;;;;;4.60;2.50;;;;;;;24.67;33.23;98376.91;5054349;28;20566;-70
2022/07/15 11:27:24;;;;;;;3.58;2.05;;;;;;;25.04;33.15;98371.22;5054649;28;20216;-70
2022/07/15 11:29:58;;;;;;;4.45;2.45;;;;;;;25.19;34.40;98368.22;5054445;28;20235;-70
2022/07/15 11:32:26;;;;;;;2.17;1.95;;;;;;;25.51;33.88;98370.78;5054480;28;20246;-70
2022/07/15 11:34:54;;;;;;;4.18;1.95;;;;;;;25.37;31.77;98370.81;5054556;28;20209;-70
2022/07/15 11:37:30;;;;;;;3.65;2.00;;;;;;;25.25;32.58;98369.69;5054241;28;20201;-70
2022/07/15 11:40:11;;;;;;;3.25;2.00;;;;;;;24.72;33.01;98371.34;5053880;28;20723;-70
2022/07/15 11:45:38;;;;;;;3.90;1.90;;;;;;;25.12;33.19;98370.53;5054046;28;20268;-70
2022/07/15 11:48:07;;;;;;;3.70;2.17;;;;;;;25.01;32.33;98371.84;5054060;28;20203;-70